createdAt,value
2017-04-06T00:00:48.924Z,26.32
2017-04-06T00:02:02.211Z,26.28
2017-04-06T00:03:15.465Z,26.43
2017-04-06T00:04:28.205Z,26.37
2017-04-06T00:05:41.528Z,26.43
2017-04-06T00:06:54.832Z,26.28
2017-04-06T00:08:08.119Z,26.32
2017-04-06T00:09:21.404Z,26.3
2017-04-06T00:10:34.664Z,26.35
2017-04-06T00:11:47.438Z,26.32
2017-04-06T00:13:00.766Z,26.3
2017-04-06T00:14:14.032Z,26.3
2017-04-06T00:15:27.312Z,26.29
2017-04-06T00:16:39.560Z,26.28
2017-04-06T00:17:52.336Z,26.25
2017-04-06T00:19:05.628Z,26.25
2017-04-06T00:20:18.874Z,26.3
2017-04-06T00:21:32.147Z,26.29
2017-04-06T00:22:44.942Z,26.18
2017-04-06T00:23:58.225Z,26.26
2017-04-06T00:25:11.540Z,26.23
2017-04-06T00:26:24.822Z,26.21
2017-04-06T00:27:38.097Z,26.13
2017-04-06T00:28:50.845Z,26.13
2017-04-06T00:30:03.601Z,26.15
2017-04-06T00:31:16.864Z,26.07
2017-04-06T00:32:30.153Z,26.07
2017-04-06T00:33:43.413Z,26.09
2017-04-06T00:34:56.163Z,26.09
2017-04-06T00:36:09.255Z,26.1
2017-04-06T00:37:22.600Z,26.06
2017-04-06T00:38:35.902Z,25.98
2017-04-06T00:39:49.180Z,25.95
2017-04-06T00:41:02.436Z,26.05
2017-04-06T00:42:15.818Z,26.06
2017-04-06T00:43:29.079Z,25.92
2017-04-06T00:44:42.362Z,25.91
2017-04-06T00:45:55.135Z,25.97
2017-04-06T00:47:08.375Z,25.94
2017-04-06T00:48:21.667Z,25.98
2017-04-06T00:49:34.414Z,25.98
2017-04-06T00:50:47.679Z,26.1
2017-04-06T00:52:00.947Z,26.01
2017-04-06T00:53:13.182Z,25.92
2017-04-06T00:54:26.451Z,25.99
2017-04-06T00:55:39.257Z,25.9
2017-04-06T00:56:52.534Z,26.07
2017-04-06T00:58:05.819Z,26.02
2017-04-06T00:59:19.133Z,25.98
2017-04-06T01:00:31.896Z,25.92
2017-04-06T01:01:45.165Z,25.95
2017-04-06T01:02:58.459Z,25.9
2017-04-06T01:04:11.231Z,25.87
2017-04-06T01:05:24.524Z,25.92
2017-04-06T01:06:37.804Z,25.9
2017-04-06T01:07:51.125Z,25.88
2017-04-06T01:09:04.388Z,25.97
2017-04-06T01:10:17.653Z,25.83
2017-04-06T01:11:30.487Z,25.97
2017-04-06T01:12:43.761Z,25.83
2017-04-06T01:13:57.049Z,25.8
2017-04-06T01:15:10.350Z,25.72
2017-04-06T01:16:23.610Z,25.72
2017-04-06T01:17:36.397Z,25.61
2017-04-06T01:18:49.695Z,25.58
2017-04-06T01:20:02.985Z,25.57
2017-04-06T01:21:16.298Z,25.52
2017-04-06T01:22:29.597Z,25.43
2017-04-06T01:23:42.865Z,25.39
2017-04-06T01:24:56.145Z,25.38
2017-04-06T01:26:08.376Z,25.4
2017-04-06T01:27:21.675Z,25.47
2017-04-06T01:28:34.965Z,25.4
2017-04-06T01:29:48.241Z,25.38
2017-04-06T01:31:01.515Z,25.39
2017-04-06T01:32:14.783Z,25.42
2017-04-06T01:33:28.060Z,25.36
2017-04-06T01:34:41.314Z,25.33
2017-04-06T01:35:54.547Z,25.3
2017-04-06T01:37:07.795Z,25.38
2017-04-06T01:38:21.294Z,25.39
2017-04-06T01:39:34.563Z,25.35
2017-04-06T01:40:47.874Z,25.17
2017-04-06T01:42:00.614Z,25.21
2017-04-06T01:43:13.897Z,25.14
2017-04-06T01:44:27.146Z,25.18
2017-04-06T01:45:40.435Z,25.15
2017-04-06T01:46:53.705Z,25.06
2017-04-06T01:48:06.439Z,25.2
2017-04-06T01:49:19.718Z,25.18
2017-04-06T01:50:33.038Z,25.06
2017-04-06T01:51:45.818Z,25.02
2017-04-06T01:52:59.080Z,24.98
2017-04-06T01:54:12.380Z,25
2017-04-06T01:55:25.153Z,25.06
2017-04-06T01:56:38.460Z,25
2017-04-06T01:57:51.215Z,25.08
2017-04-06T01:59:04.020Z,25.05
2017-04-06T02:00:16.793Z,25.02
2017-04-06T02:01:30.053Z,24.9
2017-04-06T02:02:43.313Z,24.93
2017-04-06T02:03:56.075Z,24.87
2017-04-06T02:05:09.340Z,24.88
2017-04-06T02:06:22.687Z,24.85
2017-04-06T02:07:35.472Z,24.85
2017-04-06T02:08:48.738Z,24.84
2017-04-06T02:10:02.039Z,24.81
2017-04-06T02:11:15.314Z,24.68
2017-04-06T02:12:28.600Z,24.67
2017-04-06T02:13:41.345Z,24.69
2017-04-06T02:14:54.087Z,24.58
2017-04-06T02:16:07.401Z,24.68
2017-04-06T02:17:20.658Z,24.61
2017-04-06T02:18:33.964Z,24.61
2017-04-06T02:19:47.231Z,24.61
2017-04-06T02:21:00.469Z,24.61
2017-04-06T02:22:13.730Z,24.55
2017-04-06T02:23:27.049Z,24.58
2017-04-06T02:24:40.334Z,24.49
2017-04-06T02:25:53.125Z,24.49
2017-04-06T02:27:06.375Z,24.46
2017-04-06T02:28:19.225Z,24.46
2017-04-06T02:29:32.078Z,24.52
2017-04-06T02:30:45.341Z,24.49
2017-04-06T02:31:58.606Z,24.42
2017-04-06T02:33:11.398Z,24.3
2017-04-06T02:34:24.732Z,24.4
2017-04-06T02:35:38.071Z,24.37
2017-04-06T02:36:51.317Z,24.34
2017-04-06T02:38:03.532Z,24.37
2017-04-06T02:39:16.356Z,24.4
2017-04-06T02:40:29.166Z,24.45
2017-04-06T02:41:42.468Z,24.35
2017-04-06T02:42:55.725Z,24.45
2017-04-06T02:44:09.028Z,24.37
2017-04-06T02:45:22.424Z,24.3
2017-04-06T02:46:35.704Z,24.31
2017-04-06T02:47:48.969Z,24.25
2017-04-06T02:49:01.710Z,24.35
2017-04-06T02:50:15.095Z,24.2
2017-04-06T02:51:28.511Z,24.27
2017-04-06T02:52:41.250Z,24.32
2017-04-06T02:53:54.510Z,24.32
2017-04-06T02:55:07.768Z,24.34
2017-04-06T02:56:21.178Z,24.31
2017-04-06T02:57:34.692Z,24.34
2017-04-06T02:58:47.958Z,24.24
2017-04-06T03:00:01.236Z,24.37
2017-04-06T03:01:14.565Z,24.3
2017-04-06T03:02:27.425Z,24.24
2017-04-06T03:03:40.747Z,24.2
2017-04-06T03:04:54.005Z,24.3
2017-04-06T03:06:07.335Z,24.18
2017-04-06T03:07:20.700Z,24.32
2017-04-06T03:08:34.093Z,24.34
2017-04-06T03:09:47.388Z,24.3
2017-04-06T03:11:00.651Z,24.34
2017-04-06T03:12:14.114Z,24.3
2017-04-06T03:13:27.629Z,24.31
2017-04-06T03:14:40.400Z,24.25
2017-04-06T03:15:53.638Z,24.25
2017-04-06T03:17:06.920Z,24.1
2017-04-06T03:18:20.398Z,24.06
2017-04-06T03:19:33.885Z,24.03
2017-04-06T03:20:47.212Z,24.12
2017-04-06T03:22:00.513Z,24.08
2017-04-06T03:23:13.875Z,24.24
2017-04-06T03:24:27.292Z,24.25
2017-04-06T03:25:40.091Z,24.25
2017-04-06T03:26:53.368Z,24.15
2017-04-06T03:28:06.170Z,24.09
2017-04-06T03:29:18.565Z,24.12
2017-04-06T03:30:31.487Z,24.05
2017-04-06T03:31:44.745Z,24.08
2017-04-06T03:32:58.007Z,24.05
2017-04-06T03:34:10.839Z,24.05
2017-04-06T03:35:23.764Z,23.93
2017-04-06T03:36:37.075Z,23.94
2017-04-06T03:37:50.341Z,23.9
2017-04-06T03:39:03.612Z,23.88
2017-04-06T03:40:17.009Z,23.79
2017-04-06T03:41:29.907Z,23.83
2017-04-06T03:42:43.198Z,23.84
2017-04-06T03:43:56.466Z,23.84
2017-04-06T03:45:09.725Z,23.83
2017-04-06T03:46:23.078Z,23.83
2017-04-06T03:47:36.534Z,23.75
2017-04-06T03:48:49.272Z,23.8
2017-04-06T03:50:02.573Z,23.87
2017-04-06T03:51:15.897Z,23.91
2017-04-06T03:52:29.271Z,23.85
2017-04-06T03:53:42.598Z,23.9
2017-04-06T03:54:55.839Z,24
2017-04-06T03:56:08.619Z,24
2017-04-06T03:57:21.489Z,24.09
2017-04-06T03:58:34.809Z,24.06
2017-04-06T03:59:48.058Z,24.15
2017-04-06T04:01:01.332Z,24.24
2017-04-06T04:02:14.787Z,24.13
2017-04-06T04:03:27.168Z,24.21
2017-04-06T04:04:40.483Z,24.2
2017-04-06T04:05:53.742Z,24.2
2017-04-06T04:07:06.508Z,24.2
2017-04-06T04:08:19.361Z,24.08
2017-04-06T04:09:32.277Z,24.21
2017-04-06T04:10:45.557Z,24.21
2017-04-06T04:11:58.817Z,24.15
2017-04-06T04:13:12.120Z,24.21
2017-04-06T04:14:25.469Z,24.1
2017-04-06T04:15:38.847Z,23.97
2017-04-06T04:16:52.129Z,23.94
2017-04-06T04:18:04.919Z,23.9
2017-04-06T04:19:18.386Z,23.87
2017-04-06T04:20:31.794Z,23.8
2017-04-06T04:21:45.060Z,23.84
2017-04-06T04:22:58.333Z,23.85
2017-04-06T04:24:11.640Z,23.78
2017-04-06T04:25:24.999Z,23.84
2017-04-06T04:26:38.246Z,23.79
2017-04-06T04:27:51.512Z,23.8
2017-04-06T04:29:04.802Z,23.84
2017-04-06T04:30:18.206Z,23.73
2017-04-06T04:31:31.621Z,23.75
2017-04-06T04:32:44.936Z,23.73
2017-04-06T04:33:57.676Z,23.7
2017-04-06T04:35:10.947Z,23.7
2017-04-06T04:36:23.769Z,23.68
2017-04-06T04:37:37.107Z,23.68
2017-04-06T04:38:50.379Z,23.7
2017-04-06T04:40:03.111Z,23.7
2017-04-06T04:41:16.406Z,23.72
2017-04-06T04:42:29.722Z,23.75
2017-04-06T04:43:43.004Z,23.73
2017-04-06T04:44:56.266Z,23.7
2017-04-06T04:46:09.623Z,23.68
2017-04-06T04:47:23.063Z,23.73
2017-04-06T04:48:36.392Z,23.79
2017-04-06T04:49:49.170Z,23.75
2017-04-06T04:51:02.456Z,23.84
2017-04-06T04:52:15.225Z,23.78
2017-04-06T04:53:28.472Z,23.83
2017-04-06T04:54:41.753Z,23.87
2017-04-06T04:55:54.510Z,23.85
2017-04-06T04:57:07.778Z,23.84
2017-04-06T04:58:21.059Z,23.85
2017-04-06T04:59:34.357Z,23.9
2017-04-06T05:00:47.652Z,23.83
2017-04-06T05:02:00.929Z,23.8
2017-04-06T05:03:13.680Z,23.69
2017-04-06T05:04:26.407Z,23.75
2017-04-06T05:05:39.643Z,23.75
2017-04-06T05:06:52.923Z,23.7
2017-04-06T05:08:06.162Z,23.69
2017-04-06T05:09:18.956Z,23.68
2017-04-06T05:10:31.716Z,23.72
2017-04-06T05:11:44.972Z,23.72
2017-04-06T05:12:58.220Z,23.73
2017-04-06T05:14:11.474Z,23.73
2017-04-06T05:15:24.768Z,23.73
2017-04-06T05:16:38.099Z,23.73
2017-04-06T05:17:51.344Z,23.68
2017-04-06T05:19:04.610Z,23.72
2017-04-06T05:20:17.899Z,23.58
2017-04-06T05:21:31.165Z,23.57
2017-04-06T05:22:44.410Z,23.5
2017-04-06T05:23:57.708Z,23.6
2017-04-06T05:25:10.945Z,23.53
2017-04-06T05:26:24.200Z,23.6
2017-04-06T05:27:37.443Z,23.53
2017-04-06T05:28:50.210Z,23.55
2017-04-06T05:30:03.491Z,23.54
2017-04-06T05:31:15.772Z,23.57
2017-04-06T05:32:28.013Z,23.53
2017-04-06T05:33:41.321Z,23.39
2017-04-06T05:34:54.587Z,23.51
2017-04-06T05:36:07.892Z,23.47
2017-04-06T05:37:21.148Z,23.53
2017-04-06T05:38:34.388Z,23.4
2017-04-06T05:39:47.668Z,23.46
2017-04-06T05:41:00.994Z,23.42
2017-04-06T05:42:14.285Z,23.33
2017-04-06T05:43:26.480Z,23.28
2017-04-06T05:44:39.765Z,23.25
2017-04-06T05:45:52.519Z,23.25
2017-04-06T05:47:05.771Z,23.16
2017-04-06T05:48:19.016Z,23.16
2017-04-06T05:49:32.240Z,23.23
2017-04-06T05:50:44.965Z,23.25
2017-04-06T05:51:58.229Z,23.27
2017-04-06T05:53:10.987Z,23.33
2017-04-06T05:54:24.250Z,23.31
2017-04-06T05:55:37.535Z,23.25
2017-04-06T05:56:50.816Z,23.31
2017-04-06T05:58:04.053Z,23.27
2017-04-06T05:59:17.301Z,23.22
2017-04-06T06:00:30.043Z,23.17
2017-04-06T06:01:42.329Z,23.23
2017-04-06T06:02:55.619Z,23.33
2017-04-06T06:04:08.857Z,23.35
2017-04-06T06:05:21.586Z,23.43
2017-04-06T06:06:34.350Z,23.42
2017-04-06T06:07:47.607Z,23.51
2017-04-06T06:09:00.937Z,23.51
2017-04-06T06:10:14.216Z,23.4
2017-04-06T06:11:26.973Z,23.42
2017-04-06T06:12:39.772Z,23.36
2017-04-06T06:13:52.532Z,23.46
2017-04-06T06:15:04.762Z,23.47
2017-04-06T06:16:18.056Z,23.42
2017-04-06T06:17:30.319Z,23.43
2017-04-06T06:18:43.621Z,23.42
2017-04-06T06:19:56.387Z,23.46
2017-04-06T06:21:09.167Z,23.33
2017-04-06T06:22:22.422Z,23.28
2017-04-06T06:23:35.706Z,23.27
2017-04-06T06:24:48.982Z,23.28
2017-04-06T06:26:02.291Z,23.27
2017-04-06T06:27:15.035Z,23.31
2017-04-06T06:28:28.299Z,23.23
2017-04-06T06:29:41.547Z,23.25
2017-04-06T06:30:54.280Z,23.19
2017-04-06T06:32:07.530Z,23.2
2017-04-06T06:33:19.761Z,23.16
2017-04-06T06:34:32.510Z,23.23
2017-04-06T06:35:45.741Z,23.22
2017-04-06T06:36:59.041Z,23.2
2017-04-06T06:38:11.819Z,23.09
2017-04-06T06:39:25.096Z,23.05
2017-04-06T06:40:38.346Z,23.02
2017-04-06T06:41:50.781Z,23.05
2017-04-06T06:43:04.026Z,22.97
2017-04-06T06:44:17.306Z,22.95
2017-04-06T06:45:30.070Z,22.98
2017-04-06T06:46:42.833Z,22.98
2017-04-06T06:47:56.148Z,22.95
2017-04-06T06:49:09.412Z,22.98
2017-04-06T06:50:22.159Z,22.92
2017-04-06T06:51:35.424Z,22.9
2017-04-06T06:52:48.166Z,22.83
2017-04-06T06:54:01.469Z,22.86
2017-04-06T06:55:14.731Z,22.85
2017-04-06T06:56:26.977Z,22.85
2017-04-06T06:57:40.259Z,22.77
2017-04-06T06:58:53.529Z,22.65
2017-04-06T07:00:06.810Z,22.76
2017-04-06T07:01:19.097Z,22.76
2017-04-06T07:02:32.359Z,22.51
2017-04-06T07:03:45.653Z,22.54
2017-04-06T07:04:58.951Z,22.55
2017-04-06T07:06:12.232Z,22.6
2017-04-06T07:07:25.513Z,22.6
2017-04-06T07:08:37.729Z,22.51
2017-04-06T07:09:50.994Z,22.54
2017-04-06T07:11:03.743Z,22.51
2017-04-06T07:12:17.011Z,22.39
2017-04-06T07:13:29.250Z,22.21
2017-04-06T07:14:41.990Z,22.14
2017-04-06T07:15:55.265Z,21.98
2017-04-06T07:17:08.045Z,21.68
2017-04-06T07:18:21.338Z,21.34
2017-04-06T07:19:34.139Z,20.88
2017-04-06T07:20:47.399Z,20.7
2017-04-06T07:22:00.695Z,20.55
2017-04-06T07:23:13.462Z,20.42
2017-04-06T07:24:26.245Z,20.28
2017-04-06T07:25:39.507Z,20.2
2017-04-06T07:26:52.263Z,20.05
2017-04-06T07:28:05.533Z,20.01
2017-04-06T07:29:18.821Z,19.78
2017-04-06T07:30:32.090Z,19.87
2017-04-06T07:31:45.414Z,19.81
2017-04-06T07:32:58.169Z,19.81
2017-04-06T07:34:10.903Z,19.87
2017-04-06T07:35:24.193Z,19.8
2017-04-06T07:36:36.996Z,19.84
2017-04-06T07:37:50.305Z,19.86
2017-04-06T07:39:03.595Z,19.83
2017-04-06T07:40:16.866Z,19.86
2017-04-06T07:41:29.616Z,19.81
2017-04-06T07:42:42.920Z,19.98
2017-04-06T07:43:56.236Z,19.88
2017-04-06T07:45:09.502Z,19.92
2017-04-06T07:46:22.775Z,19.84
2017-04-06T07:47:36.095Z,19.86
2017-04-06T07:48:48.863Z,19.78
2017-04-06T07:50:02.120Z,19.86
2017-04-06T07:51:15.364Z,19.84
2017-04-06T07:52:28.109Z,19.83
2017-04-06T07:53:41.400Z,19.83
2017-04-06T07:54:54.679Z,19.76
2017-04-06T07:56:07.438Z,19.73
2017-04-06T07:57:20.163Z,19.74
2017-04-06T07:58:33.440Z,19.71
2017-04-06T07:59:46.765Z,19.8
2017-04-06T08:00:59.508Z,19.68
2017-04-06T08:02:12.267Z,19.71
2017-04-06T08:03:25.043Z,19.81
2017-04-06T08:04:37.764Z,19.77
2017-04-06T08:05:51.045Z,19.63
2017-04-06T08:07:03.789Z,19.66
2017-04-06T08:08:17.095Z,19.77
2017-04-06T08:09:29.876Z,19.71
2017-04-06T08:10:42.609Z,19.68
2017-04-06T08:11:55.911Z,19.73
2017-04-06T08:13:09.144Z,19.8
2017-04-06T08:14:22.398Z,19.74
2017-04-06T08:15:35.127Z,19.76
2017-04-06T08:16:47.866Z,19.76
2017-04-06T08:18:01.139Z,19.74
2017-04-06T08:19:14.490Z,19.74
2017-04-06T08:20:27.241Z,19.68
2017-04-06T08:21:40.553Z,19.73
2017-04-06T08:22:53.307Z,19.76
2017-04-06T08:24:06.601Z,19.77
2017-04-06T08:25:19.385Z,19.77
2017-04-06T08:26:32.231Z,19.76
2017-04-06T08:27:45.038Z,19.8
2017-04-06T08:28:57.831Z,19.76
2017-04-06T08:30:10.607Z,19.77
2017-04-06T08:31:23.394Z,19.77
2017-04-06T08:32:36.704Z,19.73
2017-04-06T08:33:48.964Z,19.77
2017-04-06T08:35:01.759Z,19.77
2017-04-06T08:36:15.050Z,19.8
2017-04-06T08:37:27.831Z,19.69
2017-04-06T08:38:40.572Z,19.73
2017-04-06T08:39:53.887Z,19.8
2017-04-06T08:41:07.146Z,19.78
2017-04-06T08:42:20.451Z,19.77
2017-04-06T08:43:32.706Z,19.76
2017-04-06T08:44:45.967Z,19.8
2017-04-06T08:45:58.223Z,19.73
2017-04-06T08:47:10.993Z,19.74
2017-04-06T08:48:23.732Z,19.74
2017-04-06T08:49:36.962Z,19.74
2017-04-06T08:50:50.183Z,19.78
2017-04-06T08:52:03.430Z,19.71
2017-04-06T08:53:16.687Z,19.77
2017-04-06T08:54:29.488Z,19.74
2017-04-06T08:55:42.243Z,19.73
2017-04-06T08:56:55.507Z,19.73
2017-04-06T08:58:08.302Z,19.74
2017-04-06T08:59:21.613Z,19.73
2017-04-06T09:00:34.378Z,19.74
2017-04-06T09:01:47.651Z,19.76
2017-04-06T09:03:00.392Z,19.78
2017-04-06T09:04:13.665Z,19.76
2017-04-06T09:05:26.429Z,19.76
2017-04-06T09:06:39.176Z,19.8
2017-04-06T09:07:51.936Z,19.74
2017-04-06T09:09:05.210Z,19.73
2017-04-06T09:10:17.943Z,19.78
2017-04-06T09:11:31.201Z,19.8
2017-04-06T09:12:43.966Z,19.61
2017-04-06T09:13:57.222Z,19.56
2017-04-06T09:15:08.919Z,19.69
2017-04-06T09:16:22.185Z,19.8
2017-04-06T09:17:34.934Z,19.8
2017-04-06T09:18:47.675Z,19.66
2017-04-06T09:20:00.938Z,19.63
2017-04-06T09:21:13.690Z,19.66
2017-04-06T09:22:26.934Z,19.59
2017-04-06T09:23:39.168Z,19.68
2017-04-06T09:24:52.453Z,19.54
2017-04-06T09:27:23.071Z,19.31
2017-04-06T09:28:35.836Z,19.21
2017-04-06T09:29:49.122Z,19.19
2017-04-06T09:31:02.387Z,19.16
2017-04-06T09:32:15.149Z,19.13
2017-04-06T09:33:27.904Z,19.16
2017-04-06T09:34:41.167Z,19.14
2017-04-06T09:35:53.395Z,19.18
2017-04-06T09:37:06.167Z,19.16
2017-04-06T09:38:19.429Z,19.16
2017-04-06T09:39:32.207Z,19.22
2017-04-06T09:40:44.956Z,19.25
2017-04-06T09:41:58.229Z,19.18
2017-04-06T09:43:11.525Z,19.14
2017-04-06T09:44:24.288Z,19.1
2017-04-06T09:45:37.058Z,19.19
2017-04-06T09:46:50.361Z,19.18
2017-04-06T09:48:03.114Z,19.22
2017-04-06T09:49:16.389Z,19.18
2017-04-06T09:50:29.145Z,19.22
2017-04-06T09:51:42.429Z,19.22
2017-04-06T09:52:55.689Z,19.36
2017-04-06T09:54:08.960Z,19.26
2017-04-06T09:55:22.217Z,19.26
2017-04-06T09:56:35.492Z,19.21
2017-04-06T09:57:48.234Z,19.28
2017-04-06T09:59:00.984Z,19.29
2017-04-06T10:00:14.274Z,19.31
2017-04-06T10:01:27.591Z,19.31
2017-04-06T10:02:40.346Z,19.4
2017-04-06T10:03:53.609Z,19.32
2017-04-06T10:05:06.393Z,19.23
2017-04-06T10:06:19.652Z,19.31
2017-04-06T10:07:32.978Z,19.32
2017-04-06T10:08:46.226Z,19.29
2017-04-06T10:09:59.516Z,19.22
2017-04-06T10:11:11.768Z,19.4
2017-04-06T10:12:25.066Z,19.33
2017-04-06T10:13:38.338Z,19.4
2017-04-06T10:14:51.601Z,19.4
2017-04-06T10:16:04.898Z,19.37
2017-04-06T10:17:18.154Z,19.39
2017-04-06T10:18:30.415Z,19.36
2017-04-06T10:19:43.691Z,19.32
2017-04-06T10:20:56.477Z,19.41
2017-04-06T10:22:09.261Z,19.39
2017-04-06T10:23:22.552Z,19.39
2017-04-06T10:24:35.836Z,19.36
2017-04-06T10:25:48.605Z,19.36
2017-04-06T10:27:01.873Z,19.37
2017-04-06T10:28:15.116Z,19.29
2017-04-06T10:29:28.352Z,19.43
2017-04-06T10:30:40.606Z,19.48
2017-04-06T10:31:53.901Z,19.43
2017-04-06T10:33:06.635Z,19.43
2017-04-06T10:34:19.894Z,19.44
2017-04-06T10:35:33.176Z,19.39
2017-04-06T10:36:45.966Z,19.4
2017-04-06T10:37:58.707Z,19.44
2017-04-06T10:39:11.468Z,19.47
2017-04-06T10:40:24.741Z,19.46
2017-04-06T10:41:37.982Z,19.46
2017-04-06T10:42:51.230Z,19.5
2017-04-06T10:44:04.517Z,19.54
2017-04-06T10:45:17.838Z,19.43
2017-04-06T10:46:31.087Z,19.41
2017-04-06T10:47:43.835Z,19.55
2017-04-06T10:48:57.105Z,19.46
2017-04-06T10:50:09.861Z,19.54
2017-04-06T10:51:23.138Z,19.55
2017-04-06T10:52:35.889Z,19.47
2017-04-06T10:53:49.173Z,19.65
2017-04-06T10:55:02.475Z,19.58
2017-04-06T10:56:15.233Z,19.55
2017-04-06T10:57:28.504Z,19.59
2017-04-06T10:58:41.821Z,19.46
2017-04-06T10:59:55.127Z,19.46
2017-04-06T11:01:08.414Z,19.47
2017-04-06T11:02:21.683Z,19.54
2017-04-06T11:03:33.923Z,19.51
2017-04-06T11:04:47.181Z,19.46
2017-04-06T11:06:00.453Z,19.54
2017-04-06T11:07:13.202Z,19.43
2017-04-06T11:08:26.476Z,19.32
2017-04-06T11:09:39.743Z,19.26
2017-04-06T11:10:53.000Z,19.14
2017-04-06T11:12:05.731Z,19.08
2017-04-06T11:13:18.507Z,19.07
2017-04-06T11:14:31.785Z,19.04
2017-04-06T11:15:44.660Z,19.1
2017-04-06T11:16:57.452Z,19.04
2017-04-06T11:18:10.546Z,19.04
2017-04-06T11:19:23.808Z,19.04
2017-04-06T11:20:37.111Z,19.06
2017-04-06T11:21:49.381Z,19.04
2017-04-06T11:23:02.606Z,19.04
2017-04-06T11:24:15.380Z,19.11
2017-04-06T11:25:28.634Z,19
2017-04-06T11:26:40.870Z,19
2017-04-06T11:27:54.188Z,18.98
2017-04-06T11:29:06.957Z,18.9
2017-04-06T11:30:20.237Z,18.94
2017-04-06T11:31:33.011Z,18.85
2017-04-06T11:32:46.335Z,18.94
2017-04-06T11:34:00.391Z,18.99
2017-04-06T11:35:13.677Z,18.91
2017-04-06T11:36:26.993Z,18.91
2017-04-06T11:37:39.261Z,18.9
2017-04-06T11:38:52.511Z,18.95
2017-04-06T11:40:05.267Z,18.94
2017-04-06T11:41:18.511Z,18.94
2017-04-06T11:42:31.261Z,18.99
2017-04-06T11:43:44.519Z,18.99
2017-04-06T11:44:57.802Z,19.07
2017-04-06T11:46:11.062Z,19.08
2017-04-06T11:47:24.362Z,19.1
2017-04-06T11:48:37.669Z,19.06
2017-04-06T11:49:50.931Z,19.04
2017-04-06T11:51:04.208Z,19.07
2017-04-06T11:52:16.949Z,19.16
2017-04-06T11:53:30.259Z,19.21
2017-04-06T11:54:43.016Z,19.14
2017-04-06T11:55:56.303Z,19.13
2017-04-06T11:57:09.587Z,19.1
2017-04-06T11:58:22.865Z,19.07
2017-04-06T11:59:35.612Z,19.07
2017-04-06T12:00:48.889Z,19.18
2017-04-06T12:02:02.134Z,19.21
2017-04-06T12:03:15.411Z,19.25
2017-04-06T12:04:28.195Z,19.18
2017-04-06T12:05:40.950Z,19.13
2017-04-06T12:06:54.211Z,19.07
2017-04-06T12:08:07.497Z,19.1
2017-04-06T12:09:20.782Z,19.08
2017-04-06T12:10:34.061Z,19.16
2017-04-06T12:11:47.336Z,19.19
2017-04-06T12:13:00.095Z,19.21
2017-04-06T12:14:13.370Z,19.18
2017-04-06T12:15:26.126Z,19.26
2017-04-06T12:16:39.376Z,19.32
2017-04-06T12:17:52.686Z,19.18
2017-04-06T12:19:05.458Z,19.18
2017-04-06T12:20:18.226Z,19.22
2017-04-06T12:21:31.600Z,19.22
2017-04-06T12:22:44.361Z,19.18
2017-04-06T12:24:28.813Z,19.22
2017-04-06T12:25:41.551Z,19.16
2017-04-06T12:26:54.814Z,19.14
2017-04-06T12:28:08.136Z,19.19
2017-04-06T12:29:21.412Z,19.22
2017-04-06T12:30:34.208Z,19.32
2017-04-06T12:31:47.506Z,19.33
2017-04-06T12:33:00.782Z,19.31
2017-04-06T12:34:14.104Z,19.31
2017-04-06T12:35:26.875Z,19.37
2017-04-06T12:36:39.686Z,19.39
2017-04-06T12:37:52.948Z,19.33
2017-04-06T12:39:05.220Z,19.4
2017-04-06T12:40:18.487Z,19.43
2017-04-06T12:41:31.256Z,19.39
2017-04-06T12:42:44.516Z,19.39
2017-04-06T12:43:57.802Z,19.47
2017-04-06T12:45:11.108Z,19.54
2017-04-06T12:46:24.441Z,19.39
2017-04-06T12:47:37.182Z,19.44
2017-04-06T12:48:50.477Z,19.46
2017-04-06T12:50:03.762Z,19.55
2017-04-06T12:51:16.504Z,19.51
2017-04-06T12:52:29.807Z,19.54
2017-04-06T12:53:43.077Z,19.41
2017-04-06T12:54:55.860Z,19.43
2017-04-06T12:56:08.109Z,19.43
2017-04-06T12:57:21.373Z,19.47
2017-04-06T12:58:34.668Z,19.51
2017-04-06T12:59:47.951Z,19.54
2017-04-06T13:01:01.225Z,19.63
2017-04-06T13:02:14.525Z,19.69
2017-04-06T13:03:27.804Z,19.65
2017-04-06T13:04:41.066Z,19.71
2017-04-06T13:05:53.812Z,19.73
2017-04-06T13:07:07.070Z,19.8
2017-04-06T13:08:20.362Z,19.76
2017-04-06T13:09:32.617Z,19.88
2017-04-06T13:10:45.923Z,19.91
2017-04-06T13:11:58.708Z,19.87
2017-04-06T13:13:12.005Z,19.87
2017-04-06T13:14:24.779Z,19.95
2017-04-06T13:15:38.051Z,19.99
2017-04-06T13:16:51.324Z,19.98
2017-04-06T13:18:04.090Z,20.1
2017-04-06T13:19:17.378Z,20.08
2017-04-06T13:20:30.652Z,20.18
2017-04-06T13:21:43.436Z,20.18
2017-04-06T13:22:56.741Z,20.16
2017-04-06T13:24:10.039Z,20.06
2017-04-06T13:25:23.335Z,19.96
2017-04-06T13:26:35.594Z,19.87
2017-04-06T13:27:48.895Z,20.02
2017-04-06T13:29:02.173Z,19.83
2017-04-06T13:30:15.452Z,19.99
2017-04-06T13:31:28.712Z,20.02
2017-04-06T13:32:41.998Z,19.96
2017-04-06T13:33:55.302Z,20.05
2017-04-06T13:35:08.577Z,20.14
2017-04-06T13:36:21.890Z,20.08
2017-04-06T13:37:34.662Z,20.11
2017-04-06T13:38:47.411Z,20.17
2017-04-06T13:40:00.723Z,20.2
2017-04-06T13:41:13.488Z,20.31
2017-04-06T13:42:26.743Z,20.48
2017-04-06T13:43:40.010Z,20.41
2017-04-06T13:44:53.307Z,20.48
2017-04-06T13:46:06.196Z,20.5
2017-04-06T13:47:18.937Z,20.55
2017-04-06T13:48:32.190Z,20.5
2017-04-06T13:49:45.447Z,20.61
2017-04-06T13:50:58.706Z,20.64
2017-04-06T13:52:11.962Z,20.62
2017-04-06T13:53:25.264Z,20.58
2017-04-06T13:54:38.575Z,20.66
2017-04-06T13:55:51.845Z,20.67
2017-04-06T13:57:05.115Z,20.7
2017-04-06T13:58:18.401Z,20.74
2017-04-06T13:59:31.159Z,20.73
2017-04-06T14:00:43.914Z,20.76
2017-04-06T14:01:57.154Z,20.74
2017-04-06T14:03:10.392Z,20.92
2017-04-06T14:04:23.157Z,20.94
2017-04-06T14:05:36.427Z,21.06
2017-04-06T14:06:49.694Z,21.09
2017-04-06T14:08:03.003Z,21.21
2017-04-06T14:09:16.295Z,21.4
2017-04-06T14:10:29.581Z,21.35
2017-04-06T14:11:42.351Z,21.34
2017-04-06T14:12:55.133Z,21.32
2017-04-06T14:14:07.922Z,21.35
2017-04-06T14:15:21.203Z,21.35
2017-04-06T14:16:34.460Z,21.5
2017-04-06T14:17:47.740Z,21.72
2017-04-06T14:19:01.026Z,21.88
2017-04-06T14:20:14.306Z,22.03
2017-04-06T14:21:27.577Z,22.22
2017-04-06T14:22:40.318Z,22.46
2017-04-06T14:23:53.095Z,22.57
2017-04-06T14:25:06.358Z,22.54
2017-04-06T14:26:19.658Z,22.51
2017-04-06T14:27:32.912Z,22.36
2017-04-06T14:28:45.682Z,22.54
2017-04-06T14:29:58.572Z,22.7
2017-04-06T14:31:11.861Z,22.55
2017-04-06T14:32:25.119Z,22.72
2017-04-06T14:33:38.438Z,22.98
2017-04-06T14:34:51.753Z,23.5
2017-04-06T14:36:05.047Z,23.9
2017-04-06T14:37:17.821Z,24.16
2017-04-06T14:38:31.114Z,23.91
2017-04-06T14:39:43.911Z,23.31
2017-04-06T14:40:57.175Z,23.43
2017-04-06T14:42:09.940Z,23.61
2017-04-06T14:43:23.202Z,23.79
2017-04-06T14:44:35.458Z,24.02
2017-04-06T14:45:48.760Z,24.24
2017-04-06T14:47:02.028Z,24.24
2017-04-06T14:48:15.289Z,23.87
2017-04-06T14:49:28.572Z,23.85
2017-04-06T14:50:41.415Z,23.57
2017-04-06T14:51:54.226Z,23.39
2017-04-06T14:53:07.540Z,23.57
2017-04-06T14:54:20.795Z,23.43
2017-04-06T14:55:34.080Z,23.38
2017-04-06T14:56:45.830Z,23.39
2017-04-06T14:57:58.581Z,23.19
2017-04-06T14:59:11.844Z,23.17
2017-04-06T15:00:25.140Z,23.22
2017-04-06T15:01:38.369Z,23.27
2017-04-06T15:02:51.625Z,23.35
2017-04-06T15:04:04.862Z,23.35
2017-04-06T15:05:18.101Z,23.58
2017-04-06T15:06:31.371Z,23.79
2017-04-06T15:07:44.645Z,23.9
2017-04-06T15:08:57.896Z,24.02
2017-04-06T15:10:11.150Z,24.34
2017-04-06T15:11:24.415Z,24.62
2017-04-06T15:12:37.178Z,24.87
2017-04-06T15:13:50.440Z,24.96
2017-04-06T15:15:03.701Z,24.57
2017-04-06T15:16:16.465Z,24.47
2017-04-06T15:17:29.703Z,24.43
2017-04-06T15:18:42.975Z,24.65
2017-04-06T15:19:56.245Z,24.62
2017-04-06T15:21:09.506Z,24.68
2017-04-06T15:22:22.256Z,24.6
2017-04-06T15:23:34.979Z,24.46
2017-04-06T15:24:48.216Z,24.25
2017-04-06T15:26:01.469Z,24.32
2017-04-06T15:27:14.760Z,24.43
2017-04-06T15:28:28.036Z,24.73
2017-04-06T15:29:41.356Z,24.57
2017-04-06T15:30:54.652Z,24.45
2017-04-06T15:32:08.020Z,24.39
2017-04-06T15:33:21.283Z,24.4
2017-04-06T15:34:34.534Z,24.31
2017-04-06T15:35:46.792Z,24.15
2017-04-06T15:37:00.080Z,23.94
2017-04-06T15:38:12.840Z,24.02
2017-04-06T15:39:25.581Z,24.13
2017-04-06T15:40:38.814Z,24.25
2017-04-06T15:41:51.558Z,24.3
2017-04-06T15:43:04.775Z,24.42
2017-04-06T15:44:18.049Z,24.37
2017-04-06T15:45:31.302Z,24.31
2017-04-06T15:46:44.032Z,24.18
2017-04-06T15:47:56.787Z,24.06